sensor_id;sensor_type;location;lat;lon;timestamp;P1;durP1;ratioP1;P2;durP2;ratioP2
52458;SDS011;38372;52.902;6.024;2023-02-08T00:02:16;38.10;;;19.88;;
52458;SDS011;38372;52.902;6.024;2023-02-08T00:04:42;35.55;;;21.35;;
52458;SDS011;38372;52.902;6.024;2023-02-08T00:07:08;34.00;;;20.58;;
52458;SDS011;38372;52.902;6.024;2023-02-08T00:09:35;35.60;;;21.65;;
52458;SDS011;38372;52.902;6.024;2023-02-08T00:12:01;40.47;;;22.55;;
52458;SDS011;38372;52.902;6.024;2023-02-08T00:14:27;36.88;;;21.90;;
52458;SDS011;38372;52.902;6.024;2023-02-08T00:16:52;35.30;;;21.08;;
52458;SDS011;38372;52.902;6.024;2023-02-08T00:19:18;40.05;;;21.55;;
52458;SDS011;38372;52.902;6.024;2023-02-08T00:21:44;39.45;;;21.80;;
52458;SDS011;38372;52.902;6.024;2023-02-08T00:24:09;38.15;;;21.40;;
52458;SDS011;38372;52.902;6.024;2023-02-08T00:26:35;40.00;;;21.15;;
52458;SDS011;38372;52.902;6.024;2023-02-08T00:29:01;45.42;;;21.75;;
52458;SDS011;38372;52.902;6.024;2023-02-08T00:31:27;44.60;;;22.67;;
52458;SDS011;38372;52.902;6.024;2023-02-08T00:33:53;40.60;;;22.73;;
52458;SDS011;38372;52.902;6.024;2023-02-08T00:36:18;42.63;;;24.17;;
52458;SDS011;38372;52.902;6.024;2023-02-08T00:38:44;44.15;;;26.17;;
52458;SDS011;38372;52.902;6.024;2023-02-08T00:41:10;49.85;;;26.98;;
52458;SDS011;38372;52.902;6.024;2023-02-08T00:43:36;46.03;;;26.02;;
52458;SDS011;38372;52.902;6.024;2023-02-08T00:46:02;45.58;;;25.90;;
52458;SDS011;38372;52.902;6.024;2023-02-08T00:48:28;44.55;;;24.77;;
52458;SDS011;38372;52.902;6.024;2023-02-08T00:53:27;41.60;;;23.48;;
52458;SDS011;38372;52.902;6.024;2023-02-08T00:55:54;47.47;;;25.40;;
52458;SDS011;38372;52.902;6.024;2023-02-08T00:58:20;48.13;;;26.17;;
52458;SDS011;38372;52.902;6.024;2023-02-08T01:00:48;42.40;;;25.42;;
52458;SDS011;38372;52.902;6.024;2023-02-08T01:03:16;43.33;;;24.92;;
52458;SDS011;38372;52.902;6.024;2023-02-08T01:05:41;39.40;;;22.88;;
52458;SDS011;38372;52.902;6.024;2023-02-08T01:08:07;46.40;;;24.08;;
52458;SDS011;38372;52.902;6.024;2023-02-08T01:10:33;40.88;;;22.60;;
52458;SDS011;38372;52.902;6.024;2023-02-08T01:12:59;44.50;;;23.20;;
52458;SDS011;38372;52.902;6.024;2023-02-08T01:15:25;40.25;;;22.52;;
52458;SDS011;38372;52.902;6.024;2023-02-08T01:17:54;43.63;;;22.52;;
52458;SDS011;38372;52.902;6.024;2023-02-08T01:20:21;38.27;;;22.30;;
52458;SDS011;38372;52.902;6.024;2023-02-08T01:22:48;38.95;;;22.38;;
52458;SDS011;38372;52.902;6.024;2023-02-08T01:25:14;38.28;;;20.75;;
52458;SDS011;38372;52.902;6.024;2023-02-08T01:27:41;37.95;;;22.73;;
52458;SDS011;38372;52.902;6.024;2023-02-08T01:30:07;39.83;;;22.27;;
52458;SDS011;38372;52.902;6.024;2023-02-08T01:32:33;34.88;;;20.20;;
52458;SDS011;38372;52.902;6.024;2023-02-08T01:34:59;39.03;;;21.38;;
52458;SDS011;38372;52.902;6.024;2023-02-08T01:37:25;37.03;;;20.85;;
52458;SDS011;38372;52.902;6.024;2023-02-08T01:39:50;39.35;;;22.30;;
52458;SDS011;38372;52.902;6.024;2023-02-08T01:42:16;38.78;;;20.50;;
52458;SDS011;38372;52.902;6.024;2023-02-08T01:47:40;38.97;;;20.52;;
52458;SDS011;38372;52.902;6.024;2023-02-08T01:50:08;41.90;;;22.17;;
52458;SDS011;38372;52.902;6.024;2023-02-08T01:52:34;35.45;;;20.63;;
52458;SDS011;38372;52.902;6.024;2023-02-08T01:55:02;41.67;;;21.30;;
52458;SDS011;38372;52.902;6.024;2023-02-08T01:57:36;36.55;;;22.13;;
52458;SDS011;38372;52.902;6.024;2023-02-08T02:00:06;36.05;;;20.08;;
52458;SDS011;38372;52.902;6.024;2023-02-08T02:02:36;36.53;;;21.27;;
52458;SDS011;38372;52.902;6.024;2023-02-08T02:05:03;38.92;;;22.55;;
52458;SDS011;38372;52.902;6.024;2023-02-08T02:07:29;39.53;;;22.10;;
52458;SDS011;38372;52.902;6.024;2023-02-08T02:10:02;34.63;;;20.52;;
52458;SDS011;38372;52.902;6.024;2023-02-08T02:12:32;33.95;;;19.70;;
52458;SDS011;38372;52.902;6.024;2023-02-08T02:15:00;34.67;;;21.08;;
52458;SDS011;38372;52.902;6.024;2023-02-08T02:17:27;34.17;;;21.92;;
52458;SDS011;38372;52.902;6.024;2023-02-08T02:20:01;32.88;;;20.35;;
52458;SDS011;38372;52.902;6.024;2023-02-08T02:22:37;31.25;;;19.40;;
52458;SDS011;38372;52.902;6.024;2023-02-08T02:36:13;32.95;;;20.38;;
52458;SDS011;38372;52.902;6.024;2023-02-08T02:41:36;32.33;;;20.20;;
52458;SDS011;38372;52.902;6.024;2023-02-08T02:44:31;33.72;;;20.08;;
52458;SDS011;38372;52.902;6.024;2023-02-08T02:52:37;34.70;;;19.83;;
52458;SDS011;38372;52.902;6.024;2023-02-08T02:55:10;30.58;;;18.92;;
52458;SDS011;38372;52.902;6.024;2023-02-08T03:00:10;33.80;;;20.23;;
52458;SDS011;38372;52.902;6.024;2023-02-08T03:02:38;32.42;;;20.15;;
52458;SDS011;38372;52.902;6.024;2023-02-08T03:05:05;31.52;;;20.10;;
52458;SDS011;38372;52.902;6.024;2023-02-08T03:07:44;37.30;;;20.33;;
52458;SDS011;38372;52.902;6.024;2023-02-08T03:10:41;34.28;;;18.52;;
52458;SDS011;38372;52.902;6.024;2023-02-08T03:13:25;34.28;;;18.70;;
52458;SDS011;38372;52.902;6.024;2023-02-08T03:27:08;33.97;;;19.20;;
52458;SDS011;38372;52.902;6.024;2023-02-08T03:30:09;35.67;;;19.77;;
52458;SDS011;38372;52.902;6.024;2023-02-08T03:32:50;37.40;;;19.23;;
52458;SDS011;38372;52.902;6.024;2023-02-08T03:35:59;38.40;;;20.75;;
52458;SDS011;38372;52.902;6.024;2023-02-08T03:38:37;35.20;;;20.73;;
52458;SDS011;38372;52.902;6.024;2023-02-08T03:41:07;29.58;;;16.65;;
52458;SDS011;38372;52.902;6.024;2023-02-08T03:43:43;28.15;;;18.40;;
52458;SDS011;38372;52.902;6.024;2023-02-08T03:46:21;35.20;;;20.25;;
52458;SDS011;38372;52.902;6.024;2023-02-08T03:48:58;31.58;;;19.90;;
52458;SDS011;38372;52.902;6.024;2023-02-08T03:51:31;27.83;;;15.63;;
52458;SDS011;38372;52.902;6.024;2023-02-08T03:54:01;31.98;;;20.13;;
52458;SDS011;38372;52.902;6.024;2023-02-08T03:59:39;35.38;;;19.80;;
52458;SDS011;38372;52.902;6.024;2023-02-08T04:02:08;35.50;;;20.10;;
52458;SDS011;38372;52.902;6.024;2023-02-08T04:04:38;32.25;;;19.13;;
52458;SDS011;38372;52.902;6.024;2023-02-08T04:07:07;31.30;;;19.02;;
52458;SDS011;38372;52.902;6.024;2023-02-08T04:09:34;29.40;;;19.13;;
52458;SDS011;38372;52.902;6.024;2023-02-08T04:12:00;31.75;;;19.33;;
52458;SDS011;38372;52.902;6.024;2023-02-08T04:14:25;30.80;;;19.77;;
52458;SDS011;38372;52.902;6.024;2023-02-08T04:16:51;29.77;;;19.05;;
52458;SDS011;38372;52.902;6.024;2023-02-08T04:19:17;35.65;;;20.77;;
52458;SDS011;38372;52.902;6.024;2023-02-08T04:21:43;33.92;;;20.15;;
52458;SDS011;38372;52.902;6.024;2023-02-08T04:24:09;36.33;;;20.75;;
52458;SDS011;38372;52.902;6.024;2023-02-08T04:26:34;33.67;;;20.55;;
52458;SDS011;38372;52.902;6.024;2023-02-08T04:29:00;35.05;;;19.95;;
52458;SDS011;38372;52.902;6.024;2023-02-08T04:31:26;33.60;;;20.80;;
52458;SDS011;38372;52.902;6.024;2023-02-08T04:33:52;35.72;;;20.90;;
52458;SDS011;38372;52.902;6.024;2023-02-08T04:36:17;34.40;;;20.05;;
52458;SDS011;38372;52.902;6.024;2023-02-08T04:38:43;32.45;;;20.65;;
52458;SDS011;38372;52.902;6.024;2023-02-08T04:41:09;31.33;;;19.67;;
52458;SDS011;38372;52.902;6.024;2023-02-08T04:43:35;31.45;;;20.02;;
52458;SDS011;38372;52.902;6.024;2023-02-08T04:46:01;30.85;;;19.33;;
52458;SDS011;38372;52.902;6.024;2023-02-08T04:48:27;34.85;;;21.95;;
52458;SDS011;38372;52.902;6.024;2023-02-08T04:50:56;31.42;;;21.30;;
52458;SDS011;38372;52.902;6.024;2023-02-08T04:53:23;25.58;;;15.63;;
52458;SDS011;38372;52.902;6.024;2023-02-08T04:55:49;33.80;;;20.08;;
52458;SDS011;38372;52.902;6.024;2023-02-08T04:58:15;33.55;;;20.30;;
52458;SDS011;38372;52.902;6.024;2023-02-08T05:00:41;33.05;;;19.02;;
52458;SDS011;38372;52.902;6.024;2023-02-08T05:03:07;29.50;;;17.75;;
52458;SDS011;38372;52.902;6.024;2023-02-08T05:05:33;30.05;;;18.05;;
52458;SDS011;38372;52.902;6.024;2023-02-08T05:07:58;29.73;;;18.67;;
52458;SDS011;38372;52.902;6.024;2023-02-08T05:10:24;35.20;;;21.10;;
52458;SDS011;38372;52.902;6.024;2023-02-08T05:12:51;32.40;;;19.20;;
52458;SDS011;38372;52.902;6.024;2023-02-08T05:15:17;33.08;;;19.85;;
52458;SDS011;38372;52.902;6.024;2023-02-08T05:17:42;33.42;;;18.90;;
52458;SDS011;38372;52.902;6.024;2023-02-08T05:20:08;32.08;;;19.95;;
52458;SDS011;38372;52.902;6.024;2023-02-08T05:22:35;31.95;;;19.80;;
52458;SDS011;38372;52.902;6.024;2023-02-08T05:25:01;32.53;;;20.73;;
52458;SDS011;38372;52.902;6.024;2023-02-08T05:27:27;29.35;;;19.02;;
52458;SDS011;38372;52.902;6.024;2023-02-08T05:29:53;31.55;;;18.85;;
52458;SDS011;38372;52.902;6.024;2023-02-08T05:32:18;31.58;;;20.50;;
52458;SDS011;38372;52.902;6.024;2023-02-08T05:34:44;31.70;;;19.30;;
52458;SDS011;38372;52.902;6.024;2023-02-08T05:37:10;30.15;;;19.15;;
52458;SDS011;38372;52.902;6.024;2023-02-08T05:39:38;29.10;;;19.35;;
52458;SDS011;38372;52.902;6.024;2023-02-08T05:42:04;33.25;;;18.85;;
52458;SDS011;38372;52.902;6.024;2023-02-08T05:44:30;33.22;;;19.85;;
52458;SDS011;38372;52.902;6.024;2023-02-08T05:46:56;30.95;;;19.83;;
52458;SDS011;38372;52.902;6.024;2023-02-08T05:49:23;33.60;;;19.48;;
52458;SDS011;38372;52.902;6.024;2023-02-08T05:51:49;30.60;;;19.63;;
52458;SDS011;38372;52.902;6.024;2023-02-08T05:54:15;32.60;;;20.45;;
52458;SDS011;38372;52.902;6.024;2023-02-08T05:56:42;35.72;;;22.65;;
52458;SDS011;38372;52.902;6.024;2023-02-08T05:59:08;37.10;;;22.70;;
52458;SDS011;38372;52.902;6.024;2023-02-08T06:01:34;34.50;;;22.10;;
52458;SDS011;38372;52.902;6.024;2023-02-08T06:04:00;30.73;;;19.25;;
52458;SDS011;38372;52.902;6.024;2023-02-08T06:06:26;36.63;;;22.20;;
52458;SDS011;38372;52.902;6.024;2023-02-08T06:08:53;32.00;;;19.65;;
52458;SDS011;38372;52.902;6.024;2023-02-08T06:11:19;31.73;;;20.05;;
52458;SDS011;38372;52.902;6.024;2023-02-08T06:13:45;32.78;;;20.27;;
52458;SDS011;38372;52.902;6.024;2023-02-08T06:16:12;35.60;;;20.80;;
52458;SDS011;38372;52.902;6.024;2023-02-08T06:18:38;35.35;;;20.38;;
52458;SDS011;38372;52.902;6.024;2023-02-08T06:21:04;34.28;;;19.55;;
52458;SDS011;38372;52.902;6.024;2023-02-08T06:23:30;32.35;;;19.88;;
52458;SDS011;38372;52.902;6.024;2023-02-08T06:25:56;34.78;;;21.73;;
52458;SDS011;38372;52.902;6.024;2023-02-08T06:28:22;37.75;;;21.70;;
52458;SDS011;38372;52.902;6.024;2023-02-08T06:30:51;39.03;;;21.73;;
52458;SDS011;38372;52.902;6.024;2023-02-08T06:33:17;38.03;;;23.30;;
52458;SDS011;38372;52.902;6.024;2023-02-08T06:35:46;44.05;;;22.88;;
52458;SDS011;38372;52.902;6.024;2023-02-08T06:38:15;38.25;;;23.80;;
52458;SDS011;38372;52.902;6.024;2023-02-08T06:40:41;36.50;;;21.98;;
52458;SDS011;38372;52.902;6.024;2023-02-08T06:43:07;38.75;;;21.98;;
52458;SDS011;38372;52.902;6.024;2023-02-08T06:45:33;36.08;;;22.60;;
52458;SDS011;38372;52.902;6.024;2023-02-08T06:47:58;33.17;;;20.52;;
52458;SDS011;38372;52.902;6.024;2023-02-08T06:50:24;33.13;;;21.08;;
52458;SDS011;38372;52.902;6.024;2023-02-08T06:52:50;36.35;;;22.25;;
52458;SDS011;38372;52.902;6.024;2023-02-08T06:55:16;35.45;;;20.08;;
52458;SDS011;38372;52.902;6.024;2023-02-08T06:57:42;36.50;;;22.02;;
52458;SDS011;38372;52.902;6.024;2023-02-08T07:00:08;37.42;;;21.70;;
52458;SDS011;38372;52.902;6.024;2023-02-08T07:02:34;37.30;;;21.30;;
52458;SDS011;38372;52.902;6.024;2023-02-08T07:05:00;41.15;;;22.50;;
52458;SDS011;38372;52.902;6.024;2023-02-08T07:07:26;38.08;;;22.88;;
52458;SDS011;38372;52.902;6.024;2023-02-08T07:09:52;38.50;;;23.48;;
52458;SDS011;38372;52.902;6.024;2023-02-08T07:12:18;38.35;;;23.50;;
52458;SDS011;38372;52.902;6.024;2023-02-08T07:14:44;35.67;;;21.40;;
52458;SDS011;38372;52.902;6.024;2023-02-08T07:17:10;39.95;;;24.35;;
52458;SDS011;38372;52.902;6.024;2023-02-08T07:19:37;40.40;;;22.98;;
52458;SDS011;38372;52.902;6.024;2023-02-08T07:22:04;40.17;;;23.10;;
52458;SDS011;38372;52.902;6.024;2023-02-08T07:24:39;36.45;;;22.38;;
52458;SDS011;38372;52.902;6.024;2023-02-08T07:27:06;41.80;;;23.30;;
52458;SDS011;38372;52.902;6.024;2023-02-08T07:29:33;39.03;;;22.90;;
52458;SDS011;38372;52.902;6.024;2023-02-08T07:31:59;39.40;;;24.17;;
52458;SDS011;38372;52.902;6.024;2023-02-08T07:34:27;43.25;;;24.33;;
52458;SDS011;38372;52.902;6.024;2023-02-08T07:36:54;36.28;;;20.90;;
52458;SDS011;38372;52.902;6.024;2023-02-08T07:39:20;35.13;;;21.77;;
52458;SDS011;38372;52.902;6.024;2023-02-08T07:41:46;38.42;;;22.70;;
52458;SDS011;38372;52.902;6.024;2023-02-08T07:44:12;38.33;;;21.88;;
52458;SDS011;38372;52.902;6.024;2023-02-08T07:46:38;40.78;;;22.73;;
52458;SDS011;38372;52.902;6.024;2023-02-08T07:49:04;40.25;;;22.42;;
52458;SDS011;38372;52.902;6.024;2023-02-08T07:51:30;39.22;;;21.95;;
52458;SDS011;38372;52.902;6.024;2023-02-08T07:53:55;40.72;;;23.38;;
52458;SDS011;38372;52.902;6.024;2023-02-08T07:56:21;40.40;;;23.33;;
52458;SDS011;38372;52.902;6.024;2023-02-08T07:58:47;37.65;;;22.25;;
52458;SDS011;38372;52.902;6.024;2023-02-08T08:01:13;35.75;;;22.25;;
52458;SDS011;38372;52.902;6.024;2023-02-08T08:03:39;37.10;;;22.05;;
52458;SDS011;38372;52.902;6.024;2023-02-08T08:06:04;38.38;;;23.23;;
52458;SDS011;38372;52.902;6.024;2023-02-08T08:08:30;38.15;;;23.17;;
52458;SDS011;38372;52.902;6.024;2023-02-08T08:10:56;37.38;;;23.63;;
52458;SDS011;38372;52.902;6.024;2023-02-08T08:13:22;40.65;;;22.17;;
52458;SDS011;38372;52.902;6.024;2023-02-08T08:15:48;36.00;;;22.55;;
52458;SDS011;38372;52.902;6.024;2023-02-08T08:18:14;37.95;;;22.90;;
52458;SDS011;38372;52.902;6.024;2023-02-08T08:20:39;43.78;;;24.83;;
52458;SDS011;38372;52.902;6.024;2023-02-08T08:23:06;36.78;;;23.15;;
52458;SDS011;38372;52.902;6.024;2023-02-08T08:25:32;37.30;;;22.40;;
52458;SDS011;38372;52.902;6.024;2023-02-08T08:27:58;37.20;;;21.52;;
52458;SDS011;38372;52.902;6.024;2023-02-08T08:30:25;31.45;;;22.05;;
52458;SDS011;38372;52.902;6.024;2023-02-08T08:32:51;33.20;;;21.25;;
52458;SDS011;38372;52.902;6.024;2023-02-08T08:35:17;30.25;;;18.27;;
52458;SDS011;38372;52.902;6.024;2023-02-08T08:37:43;31.92;;;18.67;;
52458;SDS011;38372;52.902;6.024;2023-02-08T08:40:09;30.52;;;18.75;;
52458;SDS011;38372;52.902;6.024;2023-02-08T08:42:35;24.15;;;15.75;;
52458;SDS011;38372;52.902;6.024;2023-02-08T08:45:04;26.48;;;16.88;;
52458;SDS011;38372;52.902;6.024;2023-02-08T08:47:30;22.83;;;15.05;;
52458;SDS011;38372;52.902;6.024;2023-02-08T08:49:56;25.48;;;17.13;;
52458;SDS011;38372;52.902;6.024;2023-02-08T08:52:21;24.67;;;16.38;;
52458;SDS011;38372;52.902;6.024;2023-02-08T08:54:47;23.15;;;15.35;;
52458;SDS011;38372;52.902;6.024;2023-02-08T08:57:13;26.90;;;17.00;;
52458;SDS011;38372;52.902;6.024;2023-02-08T08:59:39;23.20;;;14.63;;
52458;SDS011;38372;52.902;6.024;2023-02-08T09:02:05;23.35;;;15.60;;
52458;SDS011;38372;52.902;6.024;2023-02-08T09:04:32;22.15;;;15.52;;
52458;SDS011;38372;52.902;6.024;2023-02-08T09:06:58;20.13;;;14.57;;
52458;SDS011;38372;52.902;6.024;2023-02-08T09:09:23;22.58;;;15.60;;
52458;SDS011;38372;52.902;6.024;2023-02-08T09:11:49;19.30;;;14.48;;
52458;SDS011;38372;52.902;6.024;2023-02-08T09:14:15;18.13;;;13.52;;
52458;SDS011;38372;52.902;6.024;2023-02-08T09:16:41;19.98;;;14.23;;
52458;SDS011;38372;52.902;6.024;2023-02-08T09:19:12;18.45;;;13.45;;
52458;SDS011;38372;52.902;6.024;2023-02-08T09:21:39;19.88;;;13.52;;
52458;SDS011;38372;52.902;6.024;2023-02-08T09:24:05;19.65;;;13.73;;
52458;SDS011;38372;52.902;6.024;2023-02-08T09:26:31;17.58;;;12.20;;
52458;SDS011;38372;52.902;6.024;2023-02-08T09:28:58;22.08;;;14.13;;
52458;SDS011;38372;52.902;6.024;2023-02-08T09:31:34;18.40;;;13.80;;
52458;SDS011;38372;52.902;6.024;2023-02-08T09:34:02;19.40;;;14.85;;
52458;SDS011;38372;52.902;6.024;2023-02-08T09:36:31;21.95;;;14.75;;
52458;SDS011;38372;52.902;6.024;2023-02-08T09:39:00;23.77;;;14.50;;
52458;SDS011;38372;52.902;6.024;2023-02-08T09:46:59;20.23;;;14.57;;
52458;SDS011;38372;52.902;6.024;2023-02-08T09:50:04;21.65;;;15.40;;
52458;SDS011;38372;52.902;6.024;2023-02-08T09:52:44;24.17;;;13.82;;
52458;SDS011;38372;52.902;6.024;2023-02-08T09:58:02;23.05;;;14.88;;
52458;SDS011;38372;52.902;6.024;2023-02-08T10:00:40;20.63;;;13.98;;
52458;SDS011;38372;52.902;6.024;2023-02-08T10:05:55;17.50;;;12.13;;
52458;SDS011;38372;52.902;6.024;2023-02-08T10:08:22;16.63;;;11.85;;
52458;SDS011;38372;52.902;6.024;2023-02-08T10:16:18;18.15;;;11.82;;
52458;SDS011;38372;52.902;6.024;2023-02-08T10:29:48;20.58;;;12.93;;
52458;SDS011;38372;52.902;6.024;2023-02-08T10:35:27;16.67;;;11.70;;
52458;SDS011;38372;52.902;6.024;2023-02-08T10:38:01;17.43;;;11.27;;
52458;SDS011;38372;52.902;6.024;2023-02-08T10:40:51;18.02;;;11.90;;
52458;SDS011;38372;52.902;6.024;2023-02-08T10:49:12;13.20;;;9.38;;
52458;SDS011;38372;52.902;6.024;2023-02-08T10:51:51;12.82;;;9.38;;
52458;SDS011;38372;52.902;6.024;2023-02-08T10:54:18;15.40;;;11.27;;
52458;SDS011;38372;52.902;6.024;2023-02-08T10:56:51;13.65;;;8.80;;
52458;SDS011;38372;52.902;6.024;2023-02-08T10:59:32;13.95;;;8.25;;
52458;SDS011;38372;52.902;6.024;2023-02-08T11:02:01;12.57;;;8.70;;
52458;SDS011;38372;52.902;6.024;2023-02-08T11:04:26;11.40;;;8.57;;
52458;SDS011;38372;52.902;6.024;2023-02-08T11:06:52;10.88;;;8.32;;
52458;SDS011;38372;52.902;6.024;2023-02-08T11:11:59;11.73;;;8.60;;
52458;SDS011;38372;52.902;6.024;2023-02-08T11:14:28;10.60;;;8.07;;
52458;SDS011;38372;52.902;6.024;2023-02-08T11:17:04;11.32;;;8.05;;
52458;SDS011;38372;52.902;6.024;2023-02-08T11:19:55;11.52;;;8.35;;
52458;SDS011;38372;52.902;6.024;2023-02-08T11:22:23;10.23;;;7.75;;
52458;SDS011;38372;52.902;6.024;2023-02-08T11:24:55;12.20;;;8.20;;
52458;SDS011;38372;52.902;6.024;2023-02-08T11:27:32;10.88;;;8.65;;
52458;SDS011;38372;52.902;6.024;2023-02-08T11:32:38;12.32;;;7.72;;
52458;SDS011;38372;52.902;6.024;2023-02-08T11:37:55;11.38;;;8.95;;
52458;SDS011;38372;52.902;6.024;2023-02-08T11:40:30;11.70;;;7.25;;
52458;SDS011;38372;52.902;6.024;2023-02-08T11:42:59;14.05;;;8.18;;
52458;SDS011;38372;52.902;6.024;2023-02-08T11:45:28;12.48;;;7.80;;
52458;SDS011;38372;52.902;6.024;2023-02-08T11:47:59;11.73;;;8.20;;
52458;SDS011;38372;52.902;6.024;2023-02-08T11:50:37;16.48;;;8.85;;
52458;SDS011;38372;52.902;6.024;2023-02-08T11:53:05;12.35;;;8.55;;
52458;SDS011;38372;52.902;6.024;2023-02-08T11:55:41;10.77;;;7.85;;
52458;SDS011;38372;52.902;6.024;2023-02-08T12:00:36;9.82;;;6.30;;
52458;SDS011;38372;52.902;6.024;2023-02-08T12:03:24;12.20;;;6.90;;
52458;SDS011;38372;52.902;6.024;2023-02-08T12:12:07;9.85;;;6.97;;
52458;SDS011;38372;52.902;6.024;2023-02-08T12:23:01;9.90;;;6.88;;
52458;SDS011;38372;52.902;6.024;2023-02-08T12:25:47;10.38;;;7.85;;
52458;SDS011;38372;52.902;6.024;2023-02-08T12:28:21;8.73;;;6.38;;
52458;SDS011;38372;52.902;6.024;2023-02-08T12:34:07;9.30;;;7.30;;
52458;SDS011;38372;52.902;6.024;2023-02-08T12:39:15;8.82;;;6.47;;
52458;SDS011;38372;52.902;6.024;2023-02-08T12:54:06;11.32;;;6.57;;
52458;SDS011;38372;52.902;6.024;2023-02-08T12:56:29;10.55;;;6.85;;
52458;SDS011;38372;52.902;6.024;2023-02-08T12:59:01;10.55;;;6.53;;
52458;SDS011;38372;52.902;6.024;2023-02-08T13:01:28;9.65;;;5.72;;
52458;SDS011;38372;52.902;6.024;2023-02-08T13:04:08;9.68;;;5.60;;
52458;SDS011;38372;52.902;6.024;2023-02-08T13:06:43;8.55;;;5.68;;
52458;SDS011;38372;52.902;6.024;2023-02-08T13:09:19;8.80;;;5.50;;
52458;SDS011;38372;52.902;6.024;2023-02-08T13:11:58;9.15;;;6.05;;
52458;SDS011;38372;52.902;6.024;2023-02-08T13:14:31;8.70;;;5.40;;
52458;SDS011;38372;52.902;6.024;2023-02-08T13:17:15;8.10;;;5.50;;
52458;SDS011;38372;52.902;6.024;2023-02-08T13:19:49;8.95;;;5.85;;
52458;SDS011;38372;52.902;6.024;2023-02-08T13:22:21;8.98;;;5.28;;
52458;SDS011;38372;52.902;6.024;2023-02-08T13:24:48;10.40;;;5.93;;
52458;SDS011;38372;52.902;6.024;2023-02-08T13:27:17;8.90;;;5.95;;
52458;SDS011;38372;52.902;6.024;2023-02-08T13:29:45;8.00;;;4.68;;
52458;SDS011;38372;52.902;6.024;2023-02-08T13:32:24;7.90;;;4.95;;
52458;SDS011;38372;52.902;6.024;2023-02-08T13:37:36;6.97;;;4.45;;
52458;SDS011;38372;52.902;6.024;2023-02-08T13:40:05;6.45;;;4.80;;
52458;SDS011;38372;52.902;6.024;2023-02-08T13:42:47;7.20;;;4.78;;
52458;SDS011;38372;52.902;6.024;2023-02-08T13:45:32;5.82;;;3.53;;
52458;SDS011;38372;52.902;6.024;2023-02-08T13:48:07;5.60;;;4.15;;
52458;SDS011;38372;52.902;6.024;2023-02-08T13:50:41;6.47;;;3.90;;
52458;SDS011;38372;52.902;6.024;2023-02-08T13:53:12;8.65;;;4.63;;
52458;SDS011;38372;52.902;6.024;2023-02-08T13:55:49;6.40;;;3.75;;
52458;SDS011;38372;52.902;6.024;2023-02-08T13:58:25;7.60;;;4.55;;
52458;SDS011;38372;52.902;6.024;2023-02-08T14:01:17;7.03;;;4.03;;
52458;SDS011;38372;52.902;6.024;2023-02-08T14:06:32;6.40;;;3.83;;
52458;SDS011;38372;52.902;6.024;2023-02-08T14:09:22;6.68;;;3.63;;
52458;SDS011;38372;52.902;6.024;2023-02-08T14:12:19;5.22;;;3.25;;
52458;SDS011;38372;52.902;6.024;2023-02-08T14:17:42;6.10;;;3.58;;
52458;SDS011;38372;52.902;6.024;2023-02-08T14:20:18;7.93;;;3.50;;
52458;SDS011;38372;52.902;6.024;2023-02-08T14:23:03;5.97;;;3.33;;
52458;SDS011;38372;52.902;6.024;2023-02-08T14:25:44;6.25;;;3.45;;
52458;SDS011;38372;52.902;6.024;2023-02-08T14:30:59;5.47;;;3.25;;
52458;SDS011;38372;52.902;6.024;2023-02-08T14:33:29;7.35;;;3.45;;
52458;SDS011;38372;52.902;6.024;2023-02-08T14:36:00;7.15;;;3.72;;
52458;SDS011;38372;52.902;6.024;2023-02-08T14:38:33;5.87;;;4.20;;
52458;SDS011;38372;52.902;6.024;2023-02-08T14:41:11;6.60;;;4.00;;
52458;SDS011;38372;52.902;6.024;2023-02-08T14:47:13;6.28;;;3.88;;
52458;SDS011;38372;52.902;6.024;2023-02-08T14:50:18;5.72;;;3.47;;
52458;SDS011;38372;52.902;6.024;2023-02-08T14:52:50;4.82;;;3.25;;
52458;SDS011;38372;52.902;6.024;2023-02-08T14:55:24;7.75;;;3.90;;
52458;SDS011;38372;52.902;6.024;2023-02-08T14:57:54;4.97;;;3.42;;
52458;SDS011;38372;52.902;6.024;2023-02-08T15:00:22;5.60;;;3.72;;
52458;SDS011;38372;52.902;6.024;2023-02-08T15:02:51;8.23;;;4.90;;
52458;SDS011;38372;52.902;6.024;2023-02-08T15:05:25;6.22;;;3.30;;
52458;SDS011;38372;52.902;6.024;2023-02-08T15:07:59;5.55;;;3.53;;
52458;SDS011;38372;52.902;6.024;2023-02-08T15:10:26;5.38;;;3.35;;
52458;SDS011;38372;52.902;6.024;2023-02-08T15:12:58;5.35;;;2.70;;
52458;SDS011;38372;52.902;6.024;2023-02-08T15:15:34;5.80;;;3.33;;
52458;SDS011;38372;52.902;6.024;2023-02-08T15:18:05;5.60;;;3.20;;
52458;SDS011;38372;52.902;6.024;2023-02-08T15:20:38;5.72;;;2.55;;
52458;SDS011;38372;52.902;6.024;2023-02-08T15:23:20;4.38;;;2.92;;
52458;SDS011;38372;52.902;6.024;2023-02-08T15:26:04;6.10;;;3.38;;
52458;SDS011;38372;52.902;6.024;2023-02-08T15:28:43;8.20;;;3.80;;
52458;SDS011;38372;52.902;6.024;2023-02-08T15:31:13;5.32;;;2.88;;
52458;SDS011;38372;52.902;6.024;2023-02-08T15:33:41;4.70;;;3.33;;
52458;SDS011;38372;52.902;6.024;2023-02-08T15:36:20;4.13;;;2.88;;
52458;SDS011;38372;52.902;6.024;2023-02-08T15:38:53;5.90;;;3.15;;
52458;SDS011;38372;52.902;6.024;2023-02-08T15:41:25;6.05;;;3.65;;
52458;SDS011;38372;52.902;6.024;2023-02-08T15:46:42;4.40;;;2.72;;
52458;SDS011;38372;52.902;6.024;2023-02-08T15:49:15;5.72;;;3.03;;
52458;SDS011;38372;52.902;6.024;2023-02-08T15:51:44;5.97;;;3.25;;
52458;SDS011;38372;52.902;6.024;2023-02-08T15:54:14;5.28;;;3.50;;
52458;SDS011;38372;52.902;6.024;2023-02-08T15:56:45;6.57;;;3.60;;
52458;SDS011;38372;52.902;6.024;2023-02-08T15:59:44;6.30;;;2.67;;
52458;SDS011;38372;52.902;6.024;2023-02-08T16:04:57;5.05;;;3.03;;
52458;SDS011;38372;52.902;6.024;2023-02-08T16:07:43;9.75;;;2.85;;
52458;SDS011;38372;52.902;6.024;2023-02-08T16:13:20;4.88;;;2.90;;
52458;SDS011;38372;52.902;6.024;2023-02-08T16:15:54;4.68;;;2.72;;
52458;SDS011;38372;52.902;6.024;2023-02-08T16:23:58;5.60;;;3.25;;
52458;SDS011;38372;52.902;6.024;2023-02-08T16:31:47;6.85;;;4.15;;
52458;SDS011;38372;52.902;6.024;2023-02-08T16:34:20;6.35;;;2.90;;
52458;SDS011;38372;52.902;6.024;2023-02-08T16:36:49;6.57;;;3.25;;
52458;SDS011;38372;52.902;6.024;2023-02-08T16:44:21;5.30;;;3.20;;
52458;SDS011;38372;52.902;6.024;2023-02-08T16:46:49;5.70;;;3.38;;
52458;SDS011;38372;52.902;6.024;2023-02-08T16:49:15;4.90;;;3.10;;
52458;SDS011;38372;52.902;6.024;2023-02-08T16:51:41;4.55;;;3.17;;
52458;SDS011;38372;52.902;6.024;2023-02-08T16:54:19;6.47;;;3.17;;
52458;SDS011;38372;52.902;6.024;2023-02-08T16:56:46;5.25;;;3.17;;
52458;SDS011;38372;52.902;6.024;2023-02-08T16:59:15;5.05;;;2.95;;
52458;SDS011;38372;52.902;6.024;2023-02-08T17:01:41;5.85;;;3.25;;
52458;SDS011;38372;52.902;6.024;2023-02-08T17:04:12;4.53;;;2.85;;
52458;SDS011;38372;52.902;6.024;2023-02-08T17:06:39;4.43;;;3.13;;
52458;SDS011;38372;52.902;6.024;2023-02-08T17:09:07;5.45;;;2.90;;
52458;SDS011;38372;52.902;6.024;2023-02-08T17:11:35;4.03;;;2.53;;
52458;SDS011;38372;52.902;6.024;2023-02-08T17:14:01;6.10;;;3.20;;
52458;SDS011;38372;52.902;6.024;2023-02-08T17:16:29;5.13;;;3.28;;
52458;SDS011;38372;52.902;6.024;2023-02-08T17:18:57;6.45;;;4.53;;
52458;SDS011;38372;52.902;6.024;2023-02-08T17:21:24;9.82;;;4.90;;
52458;SDS011;38372;52.902;6.024;2023-02-08T17:23:51;7.45;;;3.72;;
52458;SDS011;38372;52.902;6.024;2023-02-08T17:28:51;7.97;;;3.35;;